sensor_id;sensor_type;location;lat;lon;timestamp;P1;durP1;ratioP1;P2;durP2;ratioP2
28245;SDS011;15510;52.512;13.300;2022-12-04T00:02:03;170.83;;;80.93;;
28245;SDS011;15510;52.512;13.300;2022-12-04T00:04:29;84.67;;;42.40;;
28245;SDS011;15510;52.512;13.300;2022-12-04T00:06:54;140.27;;;69.10;;
28245;SDS011;15510;52.512;13.300;2022-12-04T00:09:20;90.30;;;45.73;;
28245;SDS011;15510;52.512;13.300;2022-12-04T00:11:47;77.40;;;38.20;;
28245;SDS011;15510;52.512;13.300;2022-12-04T00:14:13;85.87;;;43.83;;
28245;SDS011;15510;52.512;13.300;2022-12-04T00:16:39;171.67;;;94.27;;
28245;SDS011;15510;52.512;13.300;2022-12-04T00:19:05;91.73;;;48.00;;
28245;SDS011;15510;52.512;13.300;2022-12-04T00:21:30;77.17;;;38.23;;
28245;SDS011;15510;52.512;13.300;2022-12-04T00:23:56;77.43;;;38.70;;
28245;SDS011;15510;52.512;13.300;2022-12-04T00:26:26;78.60;;;36.77;;
28245;SDS011;15510;52.512;13.300;2022-12-04T00:28:53;82.33;;;39.57;;
28245;SDS011;15510;52.512;13.300;2022-12-04T00:31:22;81.43;;;41.50;;
28245;SDS011;15510;52.512;13.300;2022-12-04T00:33:49;78.67;;;38.93;;
28245;SDS011;15510;52.512;13.300;2022-12-04T00:36:16;79.40;;;39.70;;
28245;SDS011;15510;52.512;13.300;2022-12-04T00:38:44;77.37;;;39.50;;
28245;SDS011;15510;52.512;13.300;2022-12-04T00:41:11;80.73;;;39.80;;
28245;SDS011;15510;52.512;13.300;2022-12-04T00:43:38;74.57;;;37.87;;
28245;SDS011;15510;52.512;13.300;2022-12-04T00:46:04;78.33;;;36.60;;
28245;SDS011;15510;52.512;13.300;2022-12-04T00:48:30;78.90;;;38.77;;
28245;SDS011;15510;52.512;13.300;2022-12-04T00:50:59;77.83;;;37.77;;
28245;SDS011;15510;52.512;13.300;2022-12-04T00:53:29;77.80;;;37.20;;
28245;SDS011;15510;52.512;13.300;2022-12-04T00:55:55;74.03;;;35.90;;
28245;SDS011;15510;52.512;13.300;2022-12-04T00:58:20;76.67;;;39.03;;
28245;SDS011;15510;52.512;13.300;2022-12-04T01:00:46;75.53;;;37.70;;
28245;SDS011;15510;52.512;13.300;2022-12-04T01:03:12;81.23;;;38.67;;
28245;SDS011;15510;52.512;13.300;2022-12-04T01:05:38;76.07;;;38.13;;
28245;SDS011;15510;52.512;13.300;2022-12-04T01:08:05;79.63;;;38.67;;
28245;SDS011;15510;52.512;13.300;2022-12-04T01:10:31;74.93;;;38.97;;
28245;SDS011;15510;52.512;13.300;2022-12-04T01:12:57;80.90;;;38.03;;
28245;SDS011;15510;52.512;13.300;2022-12-04T01:15:23;74.77;;;37.57;;
28245;SDS011;15510;52.512;13.300;2022-12-04T01:17:48;80.77;;;38.50;;
28245;SDS011;15510;52.512;13.300;2022-12-04T01:20:15;87.70;;;39.43;;
28245;SDS011;15510;52.512;13.300;2022-12-04T01:22:41;77.53;;;37.40;;
28245;SDS011;15510;52.512;13.300;2022-12-04T01:25:07;80.87;;;38.73;;
28245;SDS011;15510;52.512;13.300;2022-12-04T01:27:34;82.80;;;39.77;;
28245;SDS011;15510;52.512;13.300;2022-12-04T01:30:00;79.70;;;39.40;;
28245;SDS011;15510;52.512;13.300;2022-12-04T01:32:25;82.93;;;38.97;;
28245;SDS011;15510;52.512;13.300;2022-12-04T01:34:52;84.10;;;40.27;;
28245;SDS011;15510;52.512;13.300;2022-12-04T01:37:18;82.73;;;40.03;;
28245;SDS011;15510;52.512;13.300;2022-12-04T01:39:43;83.07;;;39.73;;
28245;SDS011;15510;52.512;13.300;2022-12-04T01:42:11;84.87;;;40.80;;
28245;SDS011;15510;52.512;13.300;2022-12-04T01:44:40;80.60;;;39.80;;
28245;SDS011;15510;52.512;13.300;2022-12-04T01:47:08;86.37;;;39.40;;
28245;SDS011;15510;52.512;13.300;2022-12-04T01:52:09;89.03;;;41.27;;
28245;SDS011;15510;52.512;13.300;2022-12-04T01:54:51;86.07;;;40.17;;
28245;SDS011;15510;52.512;13.300;2022-12-04T01:57:22;93.10;;;43.93;;
28245;SDS011;15510;52.512;13.300;2022-12-04T01:59:53;86.73;;;40.77;;
28245;SDS011;15510;52.512;13.300;2022-12-04T02:02:41;85.43;;;40.30;;
28245;SDS011;15510;52.512;13.300;2022-12-04T02:05:10;89.57;;;40.73;;
28245;SDS011;15510;52.512;13.300;2022-12-04T02:07:39;90.80;;;42.07;;
28245;SDS011;15510;52.512;13.300;2022-12-04T02:10:09;93.10;;;41.70;;
28245;SDS011;15510;52.512;13.300;2022-12-04T02:19:42;95.30;;;42.40;;
28245;SDS011;15510;52.512;13.300;2022-12-04T02:28:42;83.87;;;38.07;;
28245;SDS011;15510;52.512;13.300;2022-12-04T02:31:35;93.37;;;41.97;;
28245;SDS011;15510;52.512;13.300;2022-12-04T02:34:43;93.80;;;40.37;;
28245;SDS011;15510;52.512;13.300;2022-12-04T02:37:38;85.87;;;40.53;;
28245;SDS011;15510;52.512;13.300;2022-12-04T02:40:22;89.00;;;41.80;;
28245;SDS011;15510;52.512;13.300;2022-12-04T02:42:54;93.70;;;43.33;;
28245;SDS011;15510;52.512;13.300;2022-12-04T02:46:06;93.00;;;42.07;;
28245;SDS011;15510;52.512;13.300;2022-12-04T02:48:39;88.03;;;41.90;;
28245;SDS011;15510;52.512;13.300;2022-12-04T02:51:10;94.47;;;43.60;;
28245;SDS011;15510;52.512;13.300;2022-12-04T02:53:42;92.83;;;42.07;;
28245;SDS011;15510;52.512;13.300;2022-12-04T02:56:24;94.90;;;42.40;;
28245;SDS011;15510;52.512;13.300;2022-12-04T02:59:15;91.03;;;42.73;;
28245;SDS011;15510;52.512;13.300;2022-12-04T03:01:51;88.30;;;42.27;;
28245;SDS011;15510;52.512;13.300;2022-12-04T03:04:23;98.53;;;43.43;;
28245;SDS011;15510;52.512;13.300;2022-12-04T03:06:55;92.97;;;43.57;;
28245;SDS011;15510;52.512;13.300;2022-12-04T03:09:34;94.00;;;43.23;;
28245;SDS011;15510;52.512;13.300;2022-12-04T03:12:10;97.50;;;42.73;;
28245;SDS011;15510;52.512;13.300;2022-12-04T03:14:54;101.53;;;43.40;;
28245;SDS011;15510;52.512;13.300;2022-12-04T03:17:37;91.30;;;42.73;;
28245;SDS011;15510;52.512;13.300;2022-12-04T03:20:12;96.23;;;42.80;;
28245;SDS011;15510;52.512;13.300;2022-12-04T03:22:40;96.40;;;42.60;;
28245;SDS011;15510;52.512;13.300;2022-12-04T03:25:16;99.37;;;45.00;;
28245;SDS011;15510;52.512;13.300;2022-12-04T03:28:01;100.90;;;45.00;;
28245;SDS011;15510;52.512;13.300;2022-12-04T03:30:34;106.50;;;45.73;;
28245;SDS011;15510;52.512;13.300;2022-12-04T03:33:12;98.73;;;42.77;;
28245;SDS011;15510;52.512;13.300;2022-12-04T03:42:05;101.80;;;43.30;;
28245;SDS011;15510;52.512;13.300;2022-12-04T03:45:46;93.83;;;43.43;;
28245;SDS011;15510;52.512;13.300;2022-12-04T03:48:24;96.20;;;41.60;;
28245;SDS011;15510;52.512;13.300;2022-12-04T03:51:32;96.13;;;43.37;;
28245;SDS011;15510;52.512;13.300;2022-12-04T03:54:13;95.60;;;41.63;;
28245;SDS011;15510;52.512;13.300;2022-12-04T03:56:52;93.77;;;41.60;;
28245;SDS011;15510;52.512;13.300;2022-12-04T03:59:43;94.27;;;40.87;;
28245;SDS011;15510;52.512;13.300;2022-12-04T04:02:21;94.67;;;43.30;;
28245;SDS011;15510;52.512;13.300;2022-12-04T04:04:50;85.67;;;42.50;;
28245;SDS011;15510;52.512;13.300;2022-12-04T04:07:24;89.90;;;42.37;;
28245;SDS011;15510;52.512;13.300;2022-12-04T04:10:04;90.53;;;40.70;;
28245;SDS011;15510;52.512;13.300;2022-12-04T04:13:00;97.83;;;43.60;;
28245;SDS011;15510;52.512;13.300;2022-12-04T04:15:47;91.00;;;42.27;;
28245;SDS011;15510;52.512;13.300;2022-12-04T04:18:41;86.77;;;39.73;;
28245;SDS011;15510;52.512;13.300;2022-12-04T04:25:11;91.50;;;42.77;;
28245;SDS011;15510;52.512;13.300;2022-12-04T04:27:59;94.93;;;42.40;;
28245;SDS011;15510;52.512;13.300;2022-12-04T04:38:58;86.37;;;39.80;;
28245;SDS011;15510;52.512;13.300;2022-12-04T04:45:32;83.50;;;39.40;;
28245;SDS011;15510;52.512;13.300;2022-12-04T04:48:08;84.97;;;41.07;;
28245;SDS011;15510;52.512;13.300;2022-12-04T04:50:53;90.27;;;40.73;;
28245;SDS011;15510;52.512;13.300;2022-12-04T04:56:12;90.20;;;40.03;;
28245;SDS011;15510;52.512;13.300;2022-12-04T04:58:45;86.97;;;40.87;;
28245;SDS011;15510;52.512;13.300;2022-12-04T05:01:18;82.53;;;38.50;;
28245;SDS011;15510;52.512;13.300;2022-12-04T05:03:46;84.97;;;40.77;;
28245;SDS011;15510;52.512;13.300;2022-12-04T05:06:13;86.63;;;39.37;;
28245;SDS011;15510;52.512;13.300;2022-12-04T05:08:39;82.80;;;37.93;;
28245;SDS011;15510;52.512;13.300;2022-12-04T05:11:09;79.33;;;39.43;;
28245;SDS011;15510;52.512;13.300;2022-12-04T05:13:39;83.30;;;41.87;;
28245;SDS011;15510;52.512;13.300;2022-12-04T05:16:07;85.60;;;41.03;;
28245;SDS011;15510;52.512;13.300;2022-12-04T05:18:47;81.57;;;38.20;;
28245;SDS011;15510;52.512;13.300;2022-12-04T05:21:37;84.27;;;39.83;;
28245;SDS011;15510;52.512;13.300;2022-12-04T05:24:15;82.03;;;38.57;;
28245;SDS011;15510;52.512;13.300;2022-12-04T05:26:40;80.70;;;38.37;;
28245;SDS011;15510;52.512;13.300;2022-12-04T05:29:07;84.40;;;39.00;;
28245;SDS011;15510;52.512;13.300;2022-12-04T05:31:47;89.50;;;39.83;;
28245;SDS011;15510;52.512;13.300;2022-12-04T05:34:48;83.13;;;37.77;;
28245;SDS011;15510;52.512;13.300;2022-12-04T05:37:25;79.80;;;37.57;;
28245;SDS011;15510;52.512;13.300;2022-12-04T05:39:57;80.90;;;38.10;;
28245;SDS011;15510;52.512;13.300;2022-12-04T05:42:32;81.10;;;39.30;;
28245;SDS011;15510;52.512;13.300;2022-12-04T05:48:08;78.20;;;39.27;;
28245;SDS011;15510;52.512;13.300;2022-12-04T05:50:36;79.27;;;38.30;;
28245;SDS011;15510;52.512;13.300;2022-12-04T05:53:14;84.23;;;39.83;;
28245;SDS011;15510;52.512;13.300;2022-12-04T05:55:40;82.60;;;39.10;;
28245;SDS011;15510;52.512;13.300;2022-12-04T05:58:09;76.30;;;37.90;;
28245;SDS011;15510;52.512;13.300;2022-12-04T06:00:35;79.90;;;38.30;;
28245;SDS011;15510;52.512;13.300;2022-12-04T06:03:04;77.47;;;36.90;;
28245;SDS011;15510;52.512;13.300;2022-12-04T06:05:31;75.73;;;38.30;;
28245;SDS011;15510;52.512;13.300;2022-12-04T06:08:18;78.20;;;39.10;;
28245;SDS011;15510;52.512;13.300;2022-12-04T06:10:44;80.77;;;38.63;;
28245;SDS011;15510;52.512;13.300;2022-12-04T06:13:16;87.43;;;38.40;;
28245;SDS011;15510;52.512;13.300;2022-12-04T06:15:50;81.10;;;38.73;;
28245;SDS011;15510;52.512;13.300;2022-12-04T06:18:22;73.37;;;36.83;;
28245;SDS011;15510;52.512;13.300;2022-12-04T06:21:01;82.07;;;38.73;;
28245;SDS011;15510;52.512;13.300;2022-12-04T06:23:33;78.23;;;36.87;;
28245;SDS011;15510;52.512;13.300;2022-12-04T06:26:36;79.73;;;38.03;;
28245;SDS011;15510;52.512;13.300;2022-12-04T06:29:26;74.53;;;36.87;;
28245;SDS011;15510;52.512;13.300;2022-12-04T06:35:12;79.10;;;39.57;;
28245;SDS011;15510;52.512;13.300;2022-12-04T06:37:38;82.73;;;38.27;;
28245;SDS011;15510;52.512;13.300;2022-12-04T06:40:07;81.27;;;36.90;;
28245;SDS011;15510;52.512;13.300;2022-12-04T06:42:45;80.93;;;40.77;;
28245;SDS011;15510;52.512;13.300;2022-12-04T06:45:13;84.53;;;38.83;;
28245;SDS011;15510;52.512;13.300;2022-12-04T06:47:46;79.50;;;37.80;;
28245;SDS011;15510;52.512;13.300;2022-12-04T06:50:28;81.83;;;38.87;;
28245;SDS011;15510;52.512;13.300;2022-12-04T06:53:00;86.43;;;39.87;;
28245;SDS011;15510;52.512;13.300;2022-12-04T06:55:26;78.53;;;37.67;;
28245;SDS011;15510;52.512;13.300;2022-12-04T06:57:52;78.23;;;37.70;;
28245;SDS011;15510;52.512;13.300;2022-12-04T07:00:21;81.17;;;38.90;;
28245;SDS011;15510;52.512;13.300;2022-12-04T07:03:11;82.03;;;39.03;;
28245;SDS011;15510;52.512;13.300;2022-12-04T07:05:43;75.63;;;37.40;;
28245;SDS011;15510;52.512;13.300;2022-12-04T07:08:20;79.57;;;37.90;;
28245;SDS011;15510;52.512;13.300;2022-12-04T07:11:00;77.67;;;37.87;;
28245;SDS011;15510;52.512;13.300;2022-12-04T07:13:30;87.10;;;38.27;;
28245;SDS011;15510;52.512;13.300;2022-12-04T07:16:05;82.93;;;38.27;;
28245;SDS011;15510;52.512;13.300;2022-12-04T07:18:42;77.57;;;36.97;;
28245;SDS011;15510;52.512;13.300;2022-12-04T07:21:23;81.60;;;38.20;;
28245;SDS011;15510;52.512;13.300;2022-12-04T07:23:55;79.53;;;38.20;;
28245;SDS011;15510;52.512;13.300;2022-12-04T07:26:46;82.47;;;37.83;;
28245;SDS011;15510;52.512;13.300;2022-12-04T07:29:20;82.10;;;40.53;;
28245;SDS011;15510;52.512;13.300;2022-12-04T07:32:13;83.07;;;38.50;;
28245;SDS011;15510;52.512;13.300;2022-12-04T07:34:39;79.53;;;37.33;;
28245;SDS011;15510;52.512;13.300;2022-12-04T07:37:08;82.43;;;37.87;;
28245;SDS011;15510;52.512;13.300;2022-12-04T07:39:54;78.37;;;35.97;;
28245;SDS011;15510;52.512;13.300;2022-12-04T07:42:26;81.30;;;38.20;;
28245;SDS011;15510;52.512;13.300;2022-12-04T07:44:56;74.93;;;36.27;;
28245;SDS011;15510;52.512;13.300;2022-12-04T07:47:37;78.63;;;37.10;;
28245;SDS011;15510;52.512;13.300;2022-12-04T07:50:04;77.77;;;37.90;;
28245;SDS011;15510;52.512;13.300;2022-12-04T07:52:34;75.93;;;37.93;;
28245;SDS011;15510;52.512;13.300;2022-12-04T07:55:05;78.67;;;37.53;;
28245;SDS011;15510;52.512;13.300;2022-12-04T07:57:34;81.07;;;38.73;;
28245;SDS011;15510;52.512;13.300;2022-12-04T08:00:23;76.37;;;37.97;;
28245;SDS011;15510;52.512;13.300;2022-12-04T08:03:00;79.87;;;38.20;;
28245;SDS011;15510;52.512;13.300;2022-12-04T08:06:05;75.30;;;38.23;;
28245;SDS011;15510;52.512;13.300;2022-12-04T08:08:45;83.33;;;38.30;;
28245;SDS011;15510;52.512;13.300;2022-12-04T08:11:13;79.03;;;37.23;;
28245;SDS011;15510;52.512;13.300;2022-12-04T08:13:41;81.93;;;36.77;;
28245;SDS011;15510;52.512;13.300;2022-12-04T08:16:07;74.87;;;37.20;;
28245;SDS011;15510;52.512;13.300;2022-12-04T08:18:35;75.43;;;37.63;;
28245;SDS011;15510;52.512;13.300;2022-12-04T08:21:02;76.10;;;35.70;;
28245;SDS011;15510;52.512;13.300;2022-12-04T08:23:27;72.47;;;38.13;;
28245;SDS011;15510;52.512;13.300;2022-12-04T08:25:53;78.20;;;36.53;;
28245;SDS011;15510;52.512;13.300;2022-12-04T08:28:21;79.07;;;36.23;;
28245;SDS011;15510;52.512;13.300;2022-12-04T08:30:47;77.83;;;35.70;;
28245;SDS011;15510;52.512;13.300;2022-12-04T08:33:13;81.77;;;37.40;;
28245;SDS011;15510;52.512;13.300;2022-12-04T08:35:38;73.63;;;36.67;;
28245;SDS011;15510;52.512;13.300;2022-12-04T08:38:04;79.60;;;37.40;;
28245;SDS011;15510;52.512;13.300;2022-12-04T08:40:30;75.77;;;37.57;;
28245;SDS011;15510;52.512;13.300;2022-12-04T08:42:55;73.90;;;36.97;;
28245;SDS011;15510;52.512;13.300;2022-12-04T08:45:21;73.73;;;36.77;;
28245;SDS011;15510;52.512;13.300;2022-12-04T08:47:47;79.07;;;37.33;;
28245;SDS011;15510;52.512;13.300;2022-12-04T08:50:12;82.60;;;37.07;;
28245;SDS011;15510;52.512;13.300;2022-12-04T08:52:38;77.93;;;36.57;;
28245;SDS011;15510;52.512;13.300;2022-12-04T08:55:04;73.60;;;37.17;;
28245;SDS011;15510;52.512;13.300;2022-12-04T08:57:30;69.30;;;34.90;;
28245;SDS011;15510;52.512;13.300;2022-12-04T08:59:56;83.00;;;38.60;;
28245;SDS011;15510;52.512;13.300;2022-12-04T09:02:21;72.83;;;35.73;;
28245;SDS011;15510;52.512;13.300;2022-12-04T09:04:47;76.57;;;35.20;;
28245;SDS011;15510;52.512;13.300;2022-12-04T09:07:13;77.80;;;37.43;;
28245;SDS011;15510;52.512;13.300;2022-12-04T09:09:39;82.63;;;37.70;;
28245;SDS011;15510;52.512;13.300;2022-12-04T09:12:04;72.03;;;35.00;;
28245;SDS011;15510;52.512;13.300;2022-12-04T09:14:30;80.10;;;36.20;;
28245;SDS011;15510;52.512;13.300;2022-12-04T09:16:56;77.30;;;35.03;;
28245;SDS011;15510;52.512;13.300;2022-12-04T09:19:21;73.87;;;33.40;;
28245;SDS011;15510;52.512;13.300;2022-12-04T09:21:47;74.13;;;34.83;;
28245;SDS011;15510;52.512;13.300;2022-12-04T09:24:13;74.83;;;36.70;;
28245;SDS011;15510;52.512;13.300;2022-12-04T09:26:39;78.33;;;35.90;;
28245;SDS011;15510;52.512;13.300;2022-12-04T09:29:04;71.27;;;34.33;;
28245;SDS011;15510;52.512;13.300;2022-12-04T09:31:31;77.70;;;35.83;;
28245;SDS011;15510;52.512;13.300;2022-12-04T09:33:58;85.13;;;36.63;;
28245;SDS011;15510;52.512;13.300;2022-12-04T09:36:24;84.03;;;37.47;;
28245;SDS011;15510;52.512;13.300;2022-12-04T09:38:50;74.13;;;36.43;;
28245;SDS011;15510;52.512;13.300;2022-12-04T09:46:46;76.30;;;35.13;;
28245;SDS011;15510;52.512;13.300;2022-12-04T09:49:17;77.27;;;35.33;;
28245;SDS011;15510;52.512;13.300;2022-12-04T09:51:51;78.77;;;37.30;;
28245;SDS011;15510;52.512;13.300;2022-12-04T09:54:22;73.73;;;34.70;;
28245;SDS011;15510;52.512;13.300;2022-12-04T09:57:03;66.70;;;32.93;;
28245;SDS011;15510;52.512;13.300;2022-12-04T09:59:36;74.93;;;35.27;;
28245;SDS011;15510;52.512;13.300;2022-12-04T10:02:09;74.40;;;35.13;;
28245;SDS011;15510;52.512;13.300;2022-12-04T10:04:52;69.43;;;35.03;;
28245;SDS011;15510;52.512;13.300;2022-12-04T10:07:25;72.00;;;34.50;;
28245;SDS011;15510;52.512;13.300;2022-12-04T10:13:04;70.67;;;34.20;;
28245;SDS011;15510;52.512;13.300;2022-12-04T10:26:15;71.97;;;34.40;;
28245;SDS011;15510;52.512;13.300;2022-12-04T10:28:56;71.90;;;35.23;;
28245;SDS011;15510;52.512;13.300;2022-12-04T10:31:38;67.03;;;33.23;;
28245;SDS011;15510;52.512;13.300;2022-12-04T10:34:15;73.07;;;34.77;;
28245;SDS011;15510;52.512;13.300;2022-12-04T10:36:51;69.30;;;32.67;;
28245;SDS011;15510;52.512;13.300;2022-12-04T10:44:41;67.73;;;32.57;;
28245;SDS011;15510;52.512;13.300;2022-12-04T10:47:07;66.80;;;33.27;;
28245;SDS011;15510;52.512;13.300;2022-12-04T10:49:36;73.20;;;33.67;;
28245;SDS011;15510;52.512;13.300;2022-12-04T10:52:03;68.37;;;33.30;;
28245;SDS011;15510;52.512;13.300;2022-12-04T10:54:30;68.87;;;33.17;;
28245;SDS011;15510;52.512;13.300;2022-12-04T10:57:05;72.30;;;33.57;;
28245;SDS011;15510;52.512;13.300;2022-12-04T10:59:32;67.57;;;33.70;;
28245;SDS011;15510;52.512;13.300;2022-12-04T11:04:40;72.70;;;34.53;;
28245;SDS011;15510;52.512;13.300;2022-12-04T11:07:07;68.20;;;35.00;;
28245;SDS011;15510;52.512;13.300;2022-12-04T11:10:03;70.73;;;34.10;;
28245;SDS011;15510;52.512;13.300;2022-12-04T11:12:29;74.50;;;34.37;;
28245;SDS011;15510;52.512;13.300;2022-12-04T11:15:00;66.60;;;34.60;;
28245;SDS011;15510;52.512;13.300;2022-12-04T11:17:32;69.13;;;34.37;;
28245;SDS011;15510;52.512;13.300;2022-12-04T11:20:03;69.53;;;33.70;;
28245;SDS011;15510;52.512;13.300;2022-12-04T11:22:48;68.47;;;33.63;;
28245;SDS011;15510;52.512;13.300;2022-12-04T11:25:15;63.23;;;32.37;;
28245;SDS011;15510;52.512;13.300;2022-12-04T11:27:44;66.07;;;33.67;;
28245;SDS011;15510;52.512;13.300;2022-12-04T11:30:13;64.83;;;33.07;;
28245;SDS011;15510;52.512;13.300;2022-12-04T11:32:44;69.40;;;34.10;;
28245;SDS011;15510;52.512;13.300;2022-12-04T11:35:21;69.13;;;32.63;;
28245;SDS011;15510;52.512;13.300;2022-12-04T11:40:26;66.50;;;33.03;;
28245;SDS011;15510;52.512;13.300;2022-12-04T11:45:58;63.53;;;31.37;;
28245;SDS011;15510;52.512;13.300;2022-12-04T11:48:44;65.23;;;31.43;;
28245;SDS011;15510;52.512;13.300;2022-12-04T11:51:18;70.40;;;36.80;;
28245;SDS011;15510;52.512;13.300;2022-12-04T11:56:49;65.93;;;33.80;;
28245;SDS011;15510;52.512;13.300;2022-12-04T11:59:43;66.57;;;34.07;;
28245;SDS011;15510;52.512;13.300;2022-12-04T12:10:42;63.03;;;31.23;;
28245;SDS011;15510;52.512;13.300;2022-12-04T12:13:42;65.10;;;31.20;;
28245;SDS011;15510;52.512;13.300;2022-12-04T12:16:19;71.47;;;36.27;;
28245;SDS011;15510;52.512;13.300;2022-12-04T12:24:58;61.27;;;30.00;;
28245;SDS011;15510;52.512;13.300;2022-12-04T12:30:44;66.67;;;31.97;;
28245;SDS011;15510;52.512;13.300;2022-12-04T12:33:18;64.83;;;31.17;;
28245;SDS011;15510;52.512;13.300;2022-12-04T12:41:26;69.47;;;36.87;;
28245;SDS011;15510;52.512;13.300;2022-12-04T12:44:03;71.43;;;34.40;;
28245;SDS011;15510;52.512;13.300;2022-12-04T12:46:46;69.40;;;33.57;;
28245;SDS011;15510;52.512;13.300;2022-12-04T12:52:25;69.10;;;32.20;;
28245;SDS011;15510;52.512;13.300;2022-12-04T12:57:40;61.17;;;29.80;;
28245;SDS011;15510;52.512;13.300;2022-12-04T13:00:18;68.33;;;32.63;;
28245;SDS011;15510;52.512;13.300;2022-12-04T13:06:03;64.07;;;31.13;;
28245;SDS011;15510;52.512;13.300;2022-12-04T13:08:39;65.60;;;31.43;;
28245;SDS011;15510;52.512;13.300;2022-12-04T13:14:10;66.17;;;32.40;;
28245;SDS011;15510;52.512;13.300;2022-12-04T13:16:40;62.90;;;31.43;;
28245;SDS011;15510;52.512;13.300;2022-12-04T13:19:27;67.73;;;32.53;;
28245;SDS011;15510;52.512;13.300;2022-12-04T13:27:29;67.87;;;32.07;;
28245;SDS011;15510;52.512;13.300;2022-12-04T13:30:00;65.37;;;32.53;;
28245;SDS011;15510;52.512;13.300;2022-12-04T13:41:27;64.80;;;31.77;;
28245;SDS011;15510;52.512;13.300;2022-12-04T13:43:55;70.27;;;34.27;;
28245;SDS011;15510;52.512;13.300;2022-12-04T13:51:41;62.83;;;31.30;;
28245;SDS011;15510;52.512;13.300;2022-12-04T13:56:41;66.70;;;32.33;;
28245;SDS011;15510;52.512;13.300;2022-12-04T14:01:48;60.53;;;31.57;;
28245;SDS011;15510;52.512;13.300;2022-12-04T14:04:45;69.77;;;32.70;;
28245;SDS011;15510;52.512;13.300;2022-12-04T14:07:27;73.87;;;32.63;;
28245;SDS011;15510;52.512;13.300;2022-12-04T14:09:55;72.13;;;34.53;;
28245;SDS011;15510;52.512;13.300;2022-12-04T14:12:25;68.27;;;31.70;;
28245;SDS011;15510;52.512;13.300;2022-12-04T14:15:03;71.97;;;32.50;;
28245;SDS011;15510;52.512;13.300;2022-12-04T14:17:35;69.87;;;33.53;;
28245;SDS011;15510;52.512;13.300;2022-12-04T14:20:04;67.37;;;32.83;;
28245;SDS011;15510;52.512;13.300;2022-12-04T14:22:51;69.53;;;32.80;;
28245;SDS011;15510;52.512;13.300;2022-12-04T14:27:44;68.67;;;34.07;;
28245;SDS011;15510;52.512;13.300;2022-12-04T14:30:22;71.20;;;31.83;;
28245;SDS011;15510;52.512;13.300;2022-12-04T14:32:51;68.97;;;33.43;;
28245;SDS011;15510;52.512;13.300;2022-12-04T14:35:20;74.03;;;34.23;;
28245;SDS011;15510;52.512;13.300;2022-12-04T14:40:21;68.30;;;31.53;;
28245;SDS011;15510;52.512;13.300;2022-12-04T14:42:50;68.97;;;33.20;;
28245;SDS011;15510;52.512;13.300;2022-12-04T14:50:42;84.30;;;38.50;;
28245;SDS011;15510;52.512;13.300;2022-12-04T14:53:27;73.30;;;33.27;;
28245;SDS011;15510;52.512;13.300;2022-12-04T14:56:17;111.67;;;50.87;;
28245;SDS011;15510;52.512;13.300;2022-12-04T14:59:26;78.70;;;35.60;;
28245;SDS011;15510;52.512;13.300;2022-12-04T15:01:57;83.43;;;34.63;;
28245;SDS011;15510;52.512;13.300;2022-12-04T15:04:33;80.90;;;35.73;;
28245;SDS011;15510;52.512;13.300;2022-12-04T15:06:59;86.23;;;36.27;;
28245;SDS011;15510;52.512;13.300;2022-12-04T15:09:26;83.20;;;36.70;;
28245;SDS011;15510;52.512;13.300;2022-12-04T15:12:18;86.97;;;38.30;;
28245;SDS011;15510;52.512;13.300;2022-12-04T15:15:05;89.57;;;36.50;;
28245;SDS011;15510;52.512;13.300;2022-12-04T15:17:37;80.07;;;34.43;;
28245;SDS011;15510;52.512;13.300;2022-12-04T15:20:17;81.87;;;35.60;;
28245;SDS011;15510;52.512;13.300;2022-12-04T15:22:44;82.93;;;35.87;;
28245;SDS011;15510;52.512;13.300;2022-12-04T15:25:14;85.50;;;37.30;;
28245;SDS011;15510;52.512;13.300;2022-12-04T15:27:43;79.37;;;34.97;;
28245;SDS011;15510;52.512;13.300;2022-12-04T15:30:20;89.47;;;38.90;;
28245;SDS011;15510;52.512;13.300;2022-12-04T15:32:48;85.17;;;36.00;;
28245;SDS011;15510;52.512;13.300;2022-12-04T15:35:23;82.77;;;35.43;;
28245;SDS011;15510;52.512;13.300;2022-12-04T15:37:52;87.07;;;37.37;;
28245;SDS011;15510;52.512;13.300;2022-12-04T15:40:20;86.93;;;36.40;;
28245;SDS011;15510;52.512;13.300;2022-12-04T15:42:48;82.97;;;35.60;;
28245;SDS011;15510;52.512;13.300;2022-12-04T15:55:23;96.27;;;37.67;;
28245;SDS011;15510;52.512;13.300;2022-12-04T15:57:58;95.00;;;38.07;;
28245;SDS011;15510;52.512;13.300;2022-12-04T16:00:37;96.80;;;39.33;;
28245;SDS011;15510;52.512;13.300;2022-12-04T16:03:05;95.53;;;37.37;;
28245;SDS011;15510;52.512;13.300;2022-12-04T16:05:45;95.10;;;37.97;;
28245;SDS011;15510;52.512;13.300;2022-12-04T16:11:05;98.57;;;38.47;;
28245;SDS011;15510;52.512;13.300;2022-12-04T16:13:40;99.13;;;38.77;;
28245;SDS011;15510;52.512;13.300;2022-12-04T16:16:06;94.63;;;38.13;;
28245;SDS011;15510;52.512;13.300;2022-12-04T16:18:36;93.93;;;38.90;;
28245;SDS011;15510;52.512;13.300;2022-12-04T16:21:03;90.87;;;38.50;;
28245;SDS011;15510;52.512;13.300;2022-12-04T16:23:30;98.77;;;41.70;;
28245;SDS011;15510;52.512;13.300;2022-12-04T16:25:56;103.37;;;40.57;;
28245;SDS011;15510;52.512;13.300;2022-12-04T16:28:22;99.13;;;40.20;;
28245;SDS011;15510;52.512;13.300;2022-12-04T16:30:49;93.73;;;39.33;;
28245;SDS011;15510;52.512;13.300;2022-12-04T16:33:16;99.63;;;40.27;;
28245;SDS011;15510;52.512;13.300;2022-12-04T16:35:43;115.93;;;48.50;;
28245;SDS011;15510;52.512;13.300;2022-12-04T16:38:12;115.47;;;50.17;;
28245;SDS011;15510;52.512;13.300;2022-12-04T16:40:40;96.60;;;39.63;;
28245;SDS011;15510;52.512;13.300;2022-12-04T16:43:08;105.87;;;41.50;;
28245;SDS011;15510;52.512;13.300;2022-12-04T16:45:37;91.93;;;39.10;;
28245;SDS011;15510;52.512;13.300;2022-12-04T16:48:06;95.27;;;38.33;;
28245;SDS011;15510;52.512;13.300;2022-12-04T16:50:32;96.27;;;41.37;;
28245;SDS011;15510;52.512;13.300;2022-12-04T16:52:57;107.57;;;41.50;;
28245;SDS011;15510;52.512;13.300;2022-12-04T16:55:24;102.70;;;41.10;;
28245;SDS011;15510;52.512;13.300;2022-12-04T16:57:54;109.27;;;42.37;;
28245;SDS011;15510;52.512;13.300;2022-12-04T17:00:20;111.90;;;41.80;;
28245;SDS011;15510;52.512;13.300;2022-12-04T17:02:46;106.07;;;41.63;;
28245;SDS011;15510;52.512;13.300;2022-12-04T17:05:16;117.83;;;45.00;;
28245;SDS011;15510;52.512;13.300;2022-12-04T17:07:43;108.03;;;42.20;;
28245;SDS011;15510;52.512;13.300;2022-12-04T17:10:10;108.20;;;41.53;;
28245;SDS011;15510;52.512;13.300;2022-12-04T17:12:37;106.73;;;42.83;;
28245;SDS011;15510;52.512;13.300;2022-12-04T17:15:04;108.73;;;40.90;;
28245;SDS011;15510;52.512;13.300;2022-12-04T17:17:30;109.87;;;42.17;;
28245;SDS011;15510;52.512;13.300;2022-12-04T17:19:56;105.83;;;40.73;;
28245;SDS011;15510;52.512;13.300;2022-12-04T17:22:22;116.97;;;42.30;;
28245;SDS011;15510;52.512;13.300;2022-12-04T17:24:51;107.97;;;41.93;;
28245;SDS011;15510;52.512;13.300;2022-12-04T17:27:20;110.47;;;42.97;;
28245;SDS011;15510;52.512;13.300;2022-12-04T17:29:46;108.23;;;41.77;;